sensor_id;sensor_type;location;lat;lon;timestamp;pressure;altitude;pressure_sealevel;temperature;humidity
54042;BME280;41156;51.508;5.406;2023-08-21T00:02:47;102144.31;;;21.32;92.17
54042;BME280;41156;51.508;5.406;2023-08-21T00:05:47;102144.56;;;21.31;92.41
54042;BME280;41156;51.508;5.406;2023-08-21T00:08:47;102153.88;;;21.30;92.11
54042;BME280;41156;51.508;5.406;2023-08-21T00:11:48;102171.25;;;21.30;92.57
54042;BME280;41156;51.508;5.406;2023-08-21T00:14:48;102157.75;;;21.29;92.88
54042;BME280;41156;51.508;5.406;2023-08-21T00:17:48;102143.41;;;21.26;92.76
54042;BME280;41156;51.508;5.406;2023-08-21T00:20:49;102135.16;;;21.26;93.29
54042;BME280;41156;51.508;5.406;2023-08-21T00:23:49;102150.50;;;21.22;93.34
54042;BME280;41156;51.508;5.406;2023-08-21T00:26:49;102146.03;;;21.16;93.50
54042;BME280;41156;51.508;5.406;2023-08-21T00:29:50;102137.72;;;21.11;93.45
54042;BME280;41156;51.508;5.406;2023-08-21T00:32:50;102135.16;;;21.04;94.03
54042;BME280;41156;51.508;5.406;2023-08-21T00:35:50;102131.75;;;20.97;94.82
54042;BME280;41156;51.508;5.406;2023-08-21T00:38:51;102130.53;;;20.88;94.45
54042;BME280;41156;51.508;5.406;2023-08-21T00:41:51;102138.94;;;20.81;95.09
54042;BME280;41156;51.508;5.406;2023-08-21T00:44:52;102137.81;;;20.77;95.47
54042;BME280;41156;51.508;5.406;2023-08-21T00:47:52;102139.38;;;20.73;95.74
54042;BME280;41156;51.508;5.406;2023-08-21T00:50:52;102142.91;;;20.68;96.33
54042;BME280;41156;51.508;5.406;2023-08-21T00:53:53;102147.22;;;20.64;96.15
54042;BME280;41156;51.508;5.406;2023-08-21T00:56:53;102152.94;;;20.63;97.10
54042;BME280;41156;51.508;5.406;2023-08-21T00:59:54;102143.03;;;20.62;97.15
54042;BME280;41156;51.508;5.406;2023-08-21T01:02:54;102145.56;;;20.63;97.34
54042;BME280;41156;51.508;5.406;2023-08-21T01:05:54;102164.25;;;20.66;97.47
54042;BME280;41156;51.508;5.406;2023-08-21T01:09:02;102163.19;;;20.67;100.00
54042;BME280;41156;51.508;5.406;2023-08-21T01:15:19;102137.06;;;20.65;98.03
54042;BME280;41156;51.508;5.406;2023-08-21T01:18:20;102130.38;;;20.61;98.43
54042;BME280;41156;51.508;5.406;2023-08-21T01:21:21;102127.31;;;20.57;98.28
54042;BME280;41156;51.508;5.406;2023-08-21T01:24:22;102122.31;;;20.54;98.65
54042;BME280;41156;51.508;5.406;2023-08-21T01:27:22;102115.06;;;20.48;98.68
54042;BME280;41156;51.508;5.406;2023-08-21T01:30:23;102123.22;;;20.43;99.18
54042;BME280;41156;51.508;5.406;2023-08-21T01:33:25;102118.16;;;20.34;100.00
54042;BME280;41156;51.508;5.406;2023-08-21T01:36:26;102116.44;;;20.28;99.97
54042;BME280;41156;51.508;5.406;2023-08-21T01:39:28;102119.06;;;20.23;100.00
54042;BME280;41156;51.508;5.406;2023-08-21T01:42:28;102124.13;;;20.14;100.00
54042;BME280;41156;51.508;5.406;2023-08-21T01:45:29;102125.97;;;20.09;100.00
54042;BME280;41156;51.508;5.406;2023-08-21T01:48:29;102120.06;;;20.00;100.00
54042;BME280;41156;51.508;5.406;2023-08-21T01:51:30;102125.44;;;19.95;100.00
54042;BME280;41156;51.508;5.406;2023-08-21T01:54:30;102120.72;;;19.90;100.00
54042;BME280;41156;51.508;5.406;2023-08-21T01:57:30;102133.56;;;19.90;100.00
54042;BME280;41156;51.508;5.406;2023-08-21T02:00:31;102136.84;;;19.87;100.00
54042;BME280;41156;51.508;5.406;2023-08-21T02:03:31;102139.31;;;19.88;100.00
54042;BME280;41156;51.508;5.406;2023-08-21T02:06:31;102144.44;;;19.85;100.00
54042;BME280;41156;51.508;5.406;2023-08-21T02:09:32;102134.81;;;19.82;100.00
54042;BME280;41156;51.508;5.406;2023-08-21T02:12:32;102146.03;;;19.81;100.00
54042;BME280;41156;51.508;5.406;2023-08-21T02:15:32;102146.84;;;19.81;100.00
54042;BME280;41156;51.508;5.406;2023-08-21T02:18:33;102144.94;;;19.82;100.00
54042;BME280;41156;51.508;5.406;2023-08-21T02:21:34;102139.97;;;19.78;100.00
54042;BME280;41156;51.508;5.406;2023-08-21T02:24:36;102138.53;;;19.76;100.00
54042;BME280;41156;51.508;5.406;2023-08-21T02:27:36;102140.66;;;19.74;100.00
54042;BME280;41156;51.508;5.406;2023-08-21T02:30:40;102138.91;;;19.68;100.00
54042;BME280;41156;51.508;5.406;2023-08-21T02:33:41;102146.19;;;19.62;100.00
54042;BME280;41156;51.508;5.406;2023-08-21T02:36:41;102138.69;;;19.57;100.00
54042;BME280;41156;51.508;5.406;2023-08-21T02:39:41;102132.63;;;19.55;100.00
54042;BME280;41156;51.508;5.406;2023-08-21T02:42:41;102132.03;;;19.53;100.00
54042;BME280;41156;51.508;5.406;2023-08-21T02:45:42;102134.44;;;19.50;100.00
54042;BME280;41156;51.508;5.406;2023-08-21T02:48:42;102143.97;;;19.47;100.00
54042;BME280;41156;51.508;5.406;2023-08-21T02:51:43;102142.78;;;19.43;100.00
54042;BME280;41156;51.508;5.406;2023-08-21T02:54:43;102136.97;;;19.39;100.00
54042;BME280;41156;51.508;5.406;2023-08-21T02:57:43;102141.03;;;19.37;100.00
54042;BME280;41156;51.508;5.406;2023-08-21T03:00:44;102134.38;;;19.33;100.00
54042;BME280;41156;51.508;5.406;2023-08-21T03:03:44;102131.28;;;19.29;100.00
54042;BME280;41156;51.508;5.406;2023-08-21T03:06:45;102140.81;;;19.27;100.00
54042;BME280;41156;51.508;5.406;2023-08-21T03:09:46;102135.84;;;19.23;100.00
54042;BME280;41156;51.508;5.406;2023-08-21T03:12:49;102138.19;;;19.20;100.00
54042;BME280;41156;51.508;5.406;2023-08-21T03:15:49;102129.03;;;19.14;100.00
54042;BME280;41156;51.508;5.406;2023-08-21T03:18:55;102127.88;;;19.10;100.00
54042;BME280;41156;51.508;5.406;2023-08-21T03:21:56;102136.09;;;19.10;100.00
54042;BME280;41156;51.508;5.406;2023-08-21T03:24:56;102133.84;;;19.07;100.00
54042;BME280;41156;51.508;5.406;2023-08-21T03:27:57;102140.84;;;19.03;100.00
54042;BME280;41156;51.508;5.406;2023-08-21T03:30:57;102138.34;;;19.01;100.00
54042;BME280;41156;51.508;5.406;2023-08-21T03:33:57;102145.97;;;18.99;100.00
54042;BME280;41156;51.508;5.406;2023-08-21T03:36:58;102144.31;;;18.98;100.00
54042;BME280;41156;51.508;5.406;2023-08-21T03:39:58;102139.91;;;18.97;100.00
54042;BME280;41156;51.508;5.406;2023-08-21T03:42:58;102139.31;;;18.95;100.00
54042;BME280;41156;51.508;5.406;2023-08-21T03:45:58;102136.81;;;18.94;100.00
54042;BME280;41156;51.508;5.406;2023-08-21T03:48:59;102135.16;;;18.93;100.00
54042;BME280;41156;51.508;5.406;2023-08-21T03:51:59;102131.81;;;18.91;100.00
54042;BME280;41156;51.508;5.406;2023-08-21T03:54:59;102140.75;;;18.86;100.00
54042;BME280;41156;51.508;5.406;2023-08-21T03:58:00;102137.63;;;18.82;100.00
54042;BME280;41156;51.508;5.406;2023-08-21T04:01:01;102138.09;;;18.79;100.00
54042;BME280;41156;51.508;5.406;2023-08-21T04:04:01;102135.00;;;18.76;100.00
54042;BME280;41156;51.508;5.406;2023-08-21T04:07:01;102130.59;;;18.75;100.00
54042;BME280;41156;51.508;5.406;2023-08-21T04:10:02;102127.75;;;18.70;100.00
54042;BME280;41156;51.508;5.406;2023-08-21T04:13:02;102125.72;;;18.65;100.00
54042;BME280;41156;51.508;5.406;2023-08-21T04:16:03;102132.50;;;18.62;100.00
54042;BME280;41156;51.508;5.406;2023-08-21T04:19:03;102143.56;;;18.56;100.00
54042;BME280;41156;51.508;5.406;2023-08-21T04:22:04;102146.56;;;18.54;100.00
54042;BME280;41156;51.508;5.406;2023-08-21T04:25:04;102149.88;;;18.56;100.00
54042;BME280;41156;51.508;5.406;2023-08-21T04:28:07;102158.44;;;18.60;100.00
54042;BME280;41156;51.508;5.406;2023-08-21T04:31:10;102165.13;;;18.64;100.00
54042;BME280;41156;51.508;5.406;2023-08-21T04:34:10;102163.56;;;18.68;100.00
54042;BME280;41156;51.508;5.406;2023-08-21T04:37:12;102169.16;;;18.73;100.00
54042;BME280;41156;51.508;5.406;2023-08-21T04:40:12;102162.41;;;18.76;100.00
54042;BME280;41156;51.508;5.406;2023-08-21T04:43:13;102164.19;;;18.82;100.00
54042;BME280;41156;51.508;5.406;2023-08-21T04:46:13;102160.50;;;18.88;100.00
54042;BME280;41156;51.508;5.406;2023-08-21T04:49:13;102166.34;;;18.92;100.00
54042;BME280;41156;51.508;5.406;2023-08-21T04:52:14;102175.75;;;18.96;100.00
54042;BME280;41156;51.508;5.406;2023-08-21T04:55:14;102173.03;;;18.96;100.00
54042;BME280;41156;51.508;5.406;2023-08-21T04:58:14;102168.94;;;18.98;100.00
54042;BME280;41156;51.508;5.406;2023-08-21T05:01:15;102177.78;;;19.00;100.00
54042;BME280;41156;51.508;5.406;2023-08-21T05:04:15;102171.47;;;19.00;100.00
54042;BME280;41156;51.508;5.406;2023-08-21T05:07:16;102174.69;;;18.97;100.00
54042;BME280;41156;51.508;5.406;2023-08-21T05:10:16;102173.25;;;18.94;100.00
54042;BME280;41156;51.508;5.406;2023-08-21T05:13:16;102176.69;;;18.90;100.00
54042;BME280;41156;51.508;5.406;2023-08-21T05:16:18;102177.78;;;18.89;100.00
54042;BME280;41156;51.508;5.406;2023-08-21T05:19:18;102179.44;;;18.90;100.00
54042;BME280;41156;51.508;5.406;2023-08-21T05:22:18;102183.84;;;18.91;100.00
54042;BME280;41156;51.508;5.406;2023-08-21T05:25:18;102194.09;;;18.95;100.00
54042;BME280;41156;51.508;5.406;2023-08-21T05:28:19;102193.88;;;18.97;100.00
54042;BME280;41156;51.508;5.406;2023-08-21T05:31:19;102198.63;;;19.01;100.00
54042;BME280;41156;51.508;5.406;2023-08-21T05:34:19;102193.88;;;19.09;100.00
54042;BME280;41156;51.508;5.406;2023-08-21T05:37:20;102193.75;;;19.15;100.00
54042;BME280;41156;51.508;5.406;2023-08-21T05:40:20;102201.84;;;19.22;100.00
54042;BME280;41156;51.508;5.406;2023-08-21T05:43:21;102199.44;;;19.26;100.00
54042;BME280;41156;51.508;5.406;2023-08-21T05:46:21;102190.13;;;19.27;100.00
54042;BME280;41156;51.508;5.406;2023-08-21T05:49:21;102194.91;;;19.31;100.00
54042;BME280;41156;51.508;5.406;2023-08-21T05:52:22;102193.59;;;19.34;100.00
54042;BME280;41156;51.508;5.406;2023-08-21T05:55:22;102196.09;;;19.35;100.00
54042;BME280;41156;51.508;5.406;2023-08-21T05:58:23;102198.59;;;19.37;100.00
54042;BME280;41156;51.508;5.406;2023-08-21T06:01:23;102194.53;;;19.39;100.00
54042;BME280;41156;51.508;5.406;2023-08-21T06:04:24;102203.94;;;19.44;100.00
54042;BME280;41156;51.508;5.406;2023-08-21T06:07:24;102205.13;;;19.48;100.00
54042;BME280;41156;51.508;5.406;2023-08-21T06:10:25;102204.41;;;19.52;100.00
54042;BME280;41156;51.508;5.406;2023-08-21T06:13:25;102213.31;;;19.59;100.00
54042;BME280;41156;51.508;5.406;2023-08-21T06:16:26;102207.44;;;19.68;100.00
54042;BME280;41156;51.508;5.406;2023-08-21T06:19:26;102210.66;;;19.76;100.00
54042;BME280;41156;51.508;5.406;2023-08-21T06:22:26;102217.44;;;19.86;100.00
54042;BME280;41156;51.508;5.406;2023-08-21T06:25:28;102218.47;;;19.96;100.00
54042;BME280;41156;51.508;5.406;2023-08-21T06:28:30;102221.31;;;20.30;100.00
54042;BME280;41156;51.508;5.406;2023-08-21T06:31:31;102221.13;;;20.66;100.00
54042;BME280;41156;51.508;5.406;2023-08-21T06:34:31;102226.94;;;20.86;100.00
54042;BME280;41156;51.508;5.406;2023-08-21T06:37:31;102226.09;;;21.03;100.00
54042;BME280;41156;51.508;5.406;2023-08-21T06:40:32;102228.72;;;21.15;100.00
54042;BME280;41156;51.508;5.406;2023-08-21T06:43:32;102222.16;;;21.16;100.00
54042;BME280;41156;51.508;5.406;2023-08-21T06:46:32;102223.75;;;21.12;100.00
54042;BME280;41156;51.508;5.406;2023-08-21T06:49:33;102224.25;;;21.09;100.00
54042;BME280;41156;51.508;5.406;2023-08-21T06:52:33;102224.25;;;21.09;100.00
54042;BME280;41156;51.508;5.406;2023-08-21T06:55:33;102225.47;;;21.18;100.00
54042;BME280;41156;51.508;5.406;2023-08-21T06:58:34;102221.22;;;21.27;100.00
54042;BME280;41156;51.508;5.406;2023-08-21T07:01:35;102227.19;;;21.41;100.00
54042;BME280;41156;51.508;5.406;2023-08-21T07:04:35;102230.50;;;21.43;100.00
54042;BME280;41156;51.508;5.406;2023-08-21T07:07:35;102229.69;;;21.42;100.00
54042;BME280;41156;51.508;5.406;2023-08-21T07:10:37;102224.03;;;21.49;100.00
54042;BME280;41156;51.508;5.406;2023-08-21T07:13:38;102233.69;;;21.52;100.00
54042;BME280;41156;51.508;5.406;2023-08-21T07:16:38;102237.31;;;21.57;100.00
54042;BME280;41156;51.508;5.406;2023-08-21T07:19:38;102233.81;;;21.62;100.00
54042;BME280;41156;51.508;5.406;2023-08-21T07:22:39;102225.75;;;21.77;100.00
54042;BME280;41156;51.508;5.406;2023-08-21T07:25:39;102232.63;;;22.02;100.00
54042;BME280;41156;51.508;5.406;2023-08-21T07:28:39;102231.84;;;22.29;100.00
54042;BME280;41156;51.508;5.406;2023-08-21T07:31:40;102236.28;;;22.62;100.00
54042;BME280;41156;51.508;5.406;2023-08-21T07:34:40;102231.41;;;23.07;97.99
54042;BME280;41156;51.508;5.406;2023-08-21T07:37:44;102232.47;;;23.49;91.86
54042;BME280;41156;51.508;5.406;2023-08-21T07:40:44;102235.31;;;23.74;93.81
54042;BME280;41156;51.508;5.406;2023-08-21T07:43:45;102229.34;;;23.98;92.01
54042;BME280;41156;51.508;5.406;2023-08-21T07:46:45;102233.81;;;24.14;90.68
54042;BME280;41156;51.508;5.406;2023-08-21T07:49:45;102238.25;;;24.46;88.34
54042;BME280;41156;51.508;5.406;2023-08-21T07:52:46;102238.84;;;24.89;83.49
54042;BME280;41156;51.508;5.406;2023-08-21T07:55:47;102228.00;;;25.34;83.66
54042;BME280;41156;51.508;5.406;2023-08-21T07:58:47;102233.22;;;25.46;81.36
54042;BME280;41156;51.508;5.406;2023-08-21T08:01:47;102242.38;;;25.21;81.57
54042;BME280;41156;51.508;5.406;2023-08-21T08:04:48;102240.78;;;24.89;81.99
54042;BME280;41156;51.508;5.406;2023-08-21T08:07:48;102245.22;;;24.95;81.44
54042;BME280;41156;51.508;5.406;2023-08-21T08:10:49;102245.44;;;25.19;79.96
54042;BME280;41156;51.508;5.406;2023-08-21T08:13:49;102242.53;;;25.71;78.55
54042;BME280;41156;51.508;5.406;2023-08-21T08:16:49;102250.72;;;25.91;76.86
54042;BME280;41156;51.508;5.406;2023-08-21T08:19:50;102246.38;;;26.25;75.03
54042;BME280;41156;51.508;5.406;2023-08-21T08:22:50;102251.72;;;26.55;73.66
54042;BME280;41156;51.508;5.406;2023-08-21T08:25:50;102244.00;;;26.87;72.70
54042;BME280;41156;51.508;5.406;2023-08-21T08:28:51;102247.19;;;26.99;71.27
54042;BME280;41156;51.508;5.406;2023-08-21T08:31:51;102250.03;;;26.94;70.59
54042;BME280;41156;51.508;5.406;2023-08-21T08:34:52;102244.81;;;26.87;70.04
54042;BME280;41156;51.508;5.406;2023-08-21T08:37:53;102249.47;;;27.21;70.12
54042;BME280;41156;51.508;5.406;2023-08-21T08:40:54;102245.31;;;27.48;67.42
54042;BME280;41156;51.508;5.406;2023-08-21T08:43:59;102246.50;;;27.42;61.21
54042;BME280;41156;51.508;5.406;2023-08-21T08:47:01;102251.59;;;27.35;67.50
54042;BME280;41156;51.508;5.406;2023-08-21T08:50:06;102254.75;;;27.18;67.27
54042;BME280;41156;51.508;5.406;2023-08-21T08:53:07;102256.78;;;27.12;66.56
54042;BME280;41156;51.508;5.406;2023-08-21T08:56:08;102257.81;;;26.92;66.41
54042;BME280;41156;51.508;5.406;2023-08-21T08:59:08;102252.13;;;26.78;66.51
54042;BME280;41156;51.508;5.406;2023-08-21T09:02:09;102248.47;;;26.48;64.96
54042;BME280;41156;51.508;5.406;2023-08-21T09:05:09;102258.88;;;26.22;65.85
54042;BME280;41156;51.508;5.406;2023-08-21T09:08:13;102245.94;;;26.12;66.57
54042;BME280;41156;51.508;5.406;2023-08-21T09:11:16;102244.91;;;25.93;65.66
54042;BME280;41156;51.508;5.406;2023-08-21T09:14:26;102241.91;;;25.84;65.46
54042;BME280;41156;51.508;5.406;2023-08-21T09:17:26;102251.34;;;25.78;66.01
54042;BME280;41156;51.508;5.406;2023-08-21T09:20:27;102242.22;;;25.77;66.83
54042;BME280;41156;51.508;5.406;2023-08-21T09:23:28;102243.06;;;25.73;66.64
54042;BME280;41156;51.508;5.406;2023-08-21T09:26:33;102243.31;;;25.76;66.47
54042;BME280;41156;51.508;5.406;2023-08-21T09:29:40;102243.94;;;25.68;66.12
54042;BME280;41156;51.508;5.406;2023-08-21T09:32:59;102237.00;;;25.65;66.00
54042;BME280;41156;51.508;5.406;2023-08-21T09:36:00;102232.25;;;25.76;67.69
54042;BME280;41156;51.508;5.406;2023-08-21T09:39:01;102230.47;;;26.01;66.92
54042;BME280;41156;51.508;5.406;2023-08-21T09:42:06;102237.19;;;26.34;63.83
54042;BME280;41156;51.508;5.406;2023-08-21T09:45:07;102240.91;;;26.54;66.00
54042;BME280;41156;51.508;5.406;2023-08-21T09:48:08;102233.38;;;26.65;65.12
54042;BME280;41156;51.508;5.406;2023-08-21T09:51:09;102239.38;;;26.77;64.19
54042;BME280;41156;51.508;5.406;2023-08-21T09:54:11;102237.59;;;26.91;63.82
54042;BME280;41156;51.508;5.406;2023-08-21T09:57:11;102231.53;;;27.13;63.03
54042;BME280;41156;51.508;5.406;2023-08-21T10:00:12;102234.09;;;27.34;62.80
54042;BME280;41156;51.508;5.406;2023-08-21T10:03:19;102229.13;;;27.55;61.63
54042;BME280;41156;51.508;5.406;2023-08-21T10:06:20;102229.13;;;27.74;61.37
54042;BME280;41156;51.508;5.406;2023-08-21T10:09:23;102230.63;;;28.10;59.87
54042;BME280;41156;51.508;5.406;2023-08-21T10:12:24;102220.09;;;28.26;59.70
54042;BME280;41156;51.508;5.406;2023-08-21T10:15:24;102222.00;;;28.44;59.05
54042;BME280;41156;51.508;5.406;2023-08-21T10:18:31;102211.88;;;28.34;51.13
54042;BME280;41156;51.508;5.406;2023-08-21T10:21:36;102207.78;;;28.32;54.96
54042;BME280;41156;51.508;5.406;2023-08-21T10:24:39;102212.09;;;28.57;56.87
54042;BME280;41156;51.508;5.406;2023-08-21T10:27:41;102211.94;;;28.67;56.12
54042;BME280;41156;51.508;5.406;2023-08-21T10:30:42;102205.66;;;28.75;56.61
54042;BME280;41156;51.508;5.406;2023-08-21T10:33:45;102216.69;;;28.81;56.30
54042;BME280;41156;51.508;5.406;2023-08-21T10:39:56;102210.22;;;28.99;52.58
54042;BME280;41156;51.508;5.406;2023-08-21T10:42:59;102210.66;;;29.06;54.50
54042;BME280;41156;51.508;5.406;2023-08-21T10:46:00;102211.50;;;29.21;53.76
54042;BME280;41156;51.508;5.406;2023-08-21T10:49:00;102203.88;;;29.40;52.75
54042;BME280;41156;51.508;5.406;2023-08-21T10:52:01;102219.34;;;29.46;51.55
54042;BME280;41156;51.508;5.406;2023-08-21T10:55:02;102215.59;;;29.65;52.14
54042;BME280;41156;51.508;5.406;2023-08-21T10:58:05;102222.16;;;29.97;52.14
54042;BME280;41156;51.508;5.406;2023-08-21T11:01:12;102216.34;;;30.07;50.59
54042;BME280;41156;51.508;5.406;2023-08-21T11:04:13;102212.25;;;30.04;51.76
54042;BME280;41156;51.508;5.406;2023-08-21T11:07:14;102214.88;;;29.73;52.23
54042;BME280;41156;51.508;5.406;2023-08-21T11:10:21;102218.91;;;29.39;50.68
54042;BME280;41156;51.508;5.406;2023-08-21T11:13:23;102212.53;;;29.39;52.21
54042;BME280;41156;51.508;5.406;2023-08-21T11:16:24;102204.28;;;29.61;52.32
54042;BME280;41156;51.508;5.406;2023-08-21T11:19:25;102206.25;;;29.97;52.44
54042;BME280;41156;51.508;5.406;2023-08-21T11:22:28;102204.03;;;29.85;47.77
54042;BME280;41156;51.508;5.406;2023-08-21T11:25:30;102203.41;;;29.88;51.75
54042;BME280;41156;51.508;5.406;2023-08-21T11:28:31;102203.69;;;30.23;50.38
54042;BME280;41156;51.508;5.406;2023-08-21T11:31:32;102196.72;;;30.57;49.87
54042;BME280;41156;51.508;5.406;2023-08-21T11:34:32;102209.13;;;31.05;49.79
54042;BME280;41156;51.508;5.406;2023-08-21T11:37:32;102200.94;;;31.09;48.60
54042;BME280;41156;51.508;5.406;2023-08-21T11:40:36;102202.91;;;31.08;44.54
54042;BME280;41156;51.508;5.406;2023-08-21T11:43:41;102201.19;;;31.39;47.04
54042;BME280;41156;51.508;5.406;2023-08-21T11:46:41;102200.81;;;31.63;47.58
54042;BME280;41156;51.508;5.406;2023-08-21T11:49:43;102197.75;;;31.42;46.19
54042;BME280;41156;51.508;5.406;2023-08-21T11:52:44;102195.66;;;30.98;47.31
54042;BME280;41156;51.508;5.406;2023-08-21T11:55:46;102195.88;;;30.79;48.17
54042;BME280;41156;51.508;5.406;2023-08-21T11:58:46;102192.34;;;30.65;46.54
54042;BME280;41156;51.508;5.406;2023-08-21T12:01:50;102191.06;;;30.40;47.45
54042;BME280;41156;51.508;5.406;2023-08-21T12:05:13;102197.22;;;30.14;47.90
54042;BME280;41156;51.508;5.406;2023-08-21T12:08:13;102194.94;;;29.94;48.60
54042;BME280;41156;51.508;5.406;2023-08-21T12:11:13;102180.28;;;29.74;49.63
54042;BME280;41156;51.508;5.406;2023-08-21T12:14:14;102184.06;;;29.56;49.80
54042;BME280;41156;51.508;5.406;2023-08-21T12:17:14;102181.13;;;29.75;49.88
54042;BME280;41156;51.508;5.406;2023-08-21T12:20:14;102190.16;;;29.94;48.13
54042;BME280;41156;51.508;5.406;2023-08-21T12:23:15;102174.22;;;30.08;48.65
54042;BME280;41156;51.508;5.406;2023-08-21T12:26:15;102166.56;;;30.14;48.13
54042;BME280;41156;51.508;5.406;2023-08-21T12:29:20;102169.66;;;30.13;48.42
54042;BME280;41156;51.508;5.406;2023-08-21T12:32:21;102170.75;;;30.25;47.20
54042;BME280;41156;51.508;5.406;2023-08-21T12:35:21;102177.72;;;30.59;46.64
54042;BME280;41156;51.508;5.406;2023-08-21T12:38:22;102170.78;;;30.88;46.27
54042;BME280;41156;51.508;5.406;2023-08-21T12:41:24;102176.53;;;31.32;45.93
54042;BME280;41156;51.508;5.406;2023-08-21T12:44:24;102162.66;;;31.67;45.68
54042;BME280;41156;51.508;5.406;2023-08-21T12:47:24;102161.84;;;31.92;45.57
54042;BME280;41156;51.508;5.406;2023-08-21T12:50:24;102158.06;;;31.97;45.52
54042;BME280;41156;51.508;5.406;2023-08-21T12:53:25;102156.25;;;31.75;45.07
54042;BME280;41156;51.508;5.406;2023-08-21T12:56:25;102168.09;;;31.72;45.11
54042;BME280;41156;51.508;5.406;2023-08-21T12:59:26;102164.31;;;31.85;44.92
54042;BME280;41156;51.508;5.406;2023-08-21T13:02:26;102150.16;;;31.90;44.32
54042;BME280;41156;51.508;5.406;2023-08-21T13:05:27;102148.88;;;32.23;43.96
54042;BME280;41156;51.508;5.406;2023-08-21T13:08:27;102150.94;;;32.43;43.46
54042;BME280;41156;51.508;5.406;2023-08-21T13:11:28;102145.34;;;32.43;43.05
54042;BME280;41156;51.508;5.406;2023-08-21T13:14:29;102148.34;;;32.30;43.51
54042;BME280;41156;51.508;5.406;2023-08-21T13:17:30;102149.44;;;32.55;43.11
54042;BME280;41156;51.508;5.406;2023-08-21T13:20:30;102156.25;;;32.83;42.86
54042;BME280;41156;51.508;5.406;2023-08-21T13:23:30;102152.03;;;32.69;41.80
54042;BME280;41156;51.508;5.406;2023-08-21T13:26:32;102151.41;;;32.54;41.94
54042;BME280;41156;51.508;5.406;2023-08-21T13:29:32;102158.53;;;32.43;41.40
54042;BME280;41156;51.508;5.406;2023-08-21T13:32:33;102148.69;;;32.11;42.08
54042;BME280;41156;51.508;5.406;2023-08-21T13:35:33;102158.69;;;31.59;42.62
54042;BME280;41156;51.508;5.406;2023-08-21T13:38:34;102157.25;;;31.62;42.57
54042;BME280;41156;51.508;5.406;2023-08-21T13:41:34;102149.69;;;31.71;42.59
54042;BME280;41156;51.508;5.406;2023-08-21T13:44:35;102151.16;;;31.95;42.59
54042;BME280;41156;51.508;5.406;2023-08-21T13:47:35;102149.16;;;32.04;42.32
54042;BME280;41156;51.508;5.406;2023-08-21T13:50:35;102141.47;;;32.18;41.85
54042;BME280;41156;51.508;5.406;2023-08-21T13:53:36;102142.75;;;32.30;41.75
54042;BME280;41156;51.508;5.406;2023-08-21T13:56:36;102132.34;;;32.39;41.25
54042;BME280;41156;51.508;5.406;2023-08-21T13:59:36;102132.84;;;32.41;40.81
54042;BME280;41156;51.508;5.406;2023-08-21T14:02:37;102125.19;;;32.12;40.91
54042;BME280;41156;51.508;5.406;2023-08-21T14:05:38;102123.72;;;31.88;40.90
54042;BME280;41156;51.508;5.406;2023-08-21T14:08:38;102126.50;;;31.88;41.26
54042;BME280;41156;51.508;5.406;2023-08-21T14:11:38;102124.38;;;32.11;41.19
54042;BME280;41156;51.508;5.406;2023-08-21T14:14:39;102120.41;;;32.03;40.95
54042;BME280;41156;51.508;5.406;2023-08-21T14:17:39;102130.28;;;31.57;41.22
54042;BME280;41156;51.508;5.406;2023-08-21T14:20:40;102121.25;;;31.51;41.90
54042;BME280;41156;51.508;5.406;2023-08-21T14:23:40;102116.31;;;31.83;41.31
54042;BME280;41156;51.508;5.406;2023-08-21T14:26:40;102116.47;;;32.04;41.33
54042;BME280;41156;51.508;5.406;2023-08-21T14:29:44;102107.25;;;32.21;39.23
54042;BME280;41156;51.508;5.406;2023-08-21T14:32:44;102106.28;;;32.00;39.53
54042;BME280;41156;51.508;5.406;2023-08-21T14:35:45;102103.81;;;31.81;38.70
54042;BME280;41156;51.508;5.406;2023-08-21T14:38:45;102093.28;;;31.95;39.17
54042;BME280;41156;51.508;5.406;2023-08-21T14:41:45;102097.72;;;32.05;38.28
54042;BME280;41156;51.508;5.406;2023-08-21T14:44:46;102102.16;;;32.15;37.85
54042;BME280;41156;51.508;5.406;2023-08-21T14:47:46;102096.50;;;32.32;37.46
54042;BME280;41156;51.508;5.406;2023-08-21T14:50:47;102084.59;;;32.53;37.33
54042;BME280;41156;51.508;5.406;2023-08-21T14:53:47;102078.31;;;32.56;36.95
54042;BME280;41156;51.508;5.406;2023-08-21T14:56:47;102082.28;;;32.55;36.63
54042;BME280;41156;51.508;5.406;2023-08-21T14:59:48;102082.69;;;32.83;36.95
54042;BME280;41156;51.508;5.406;2023-08-21T15:02:48;102074.13;;;32.79;36.54
54042;BME280;41156;51.508;5.406;2023-08-21T15:05:48;102071.63;;;32.87;37.06
54042;BME280;41156;51.508;5.406;2023-08-21T15:08:49;102069.88;;;33.03;37.46
54042;BME280;41156;51.508;5.406;2023-08-21T15:11:49;102066.84;;;32.87;36.62
54042;BME280;41156;51.508;5.406;2023-08-21T15:14:49;102062.56;;;32.90;37.16
54042;BME280;41156;51.508;5.406;2023-08-21T15:52:05;102035.13;;;32.44;39.06
54042;BME280;41156;51.508;5.406;2023-08-21T15:55:06;102030.66;;;32.43;39.13
54042;BME280;41156;51.508;5.406;2023-08-21T15:58:06;102029.28;;;32.20;37.92
54042;BME280;41156;51.508;5.406;2023-08-21T16:01:08;102034.56;;;32.04;37.82
54042;BME280;41156;51.508;5.406;2023-08-21T16:04:08;102013.44;;;31.68;38.42
54042;BME280;41156;51.508;5.406;2023-08-21T16:07:09;102017.53;;;31.70;37.92
54042;BME280;41156;51.508;5.406;2023-08-21T16:10:09;102015.91;;;31.61;38.21
54042;BME280;41156;51.508;5.406;2023-08-21T16:13:10;102015.59;;;31.45;38.38
54042;BME280;41156;51.508;5.406;2023-08-21T16:16:11;102016.22;;;31.42;38.41
54042;BME280;41156;51.508;5.406;2023-08-21T16:19:12;102013.75;;;31.49;37.74
54042;BME280;41156;51.508;5.406;2023-08-21T16:22:13;102018.53;;;31.13;38.05